createdAt,value
2022-09-05T00:02:03.121Z,18.90
2022-09-05T00:04:53.309Z,18.90
2022-09-05T00:07:37.485Z,18.90
2022-09-05T00:10:37.402Z,18.90
2022-09-05T00:13:16.001Z,18.90
2022-09-05T00:15:58.182Z,18.90
2022-09-05T00:22:12.875Z,18.90
2022-09-05T00:24:25.693Z,18.80
2022-09-05T00:25:06.894Z,18.80
2022-09-05T00:28:25.837Z,18.80
2022-09-05T00:31:55.646Z,18.80
2022-09-05T00:34:41.156Z,18.90
2022-09-05T00:37:16.470Z,18.90
2022-09-05T00:39:47.676Z,18.80
2022-09-05T00:42:18.410Z,18.80
2022-09-05T00:45:02.914Z,18.80
2022-09-05T00:47:33.612Z,18.80
2022-09-05T00:50:15.005Z,18.70
2022-09-05T00:53:18.724Z,18.70
2022-09-05T00:56:06.506Z,18.70
2022-09-05T00:58:56.673Z,18.60
2022-09-05T01:01:34.082Z,18.60
2022-09-05T01:04:27.726Z,18.60
2022-09-05T01:07:15.807Z,18.60
2022-09-05T01:10:03.208Z,18.50
2022-09-05T01:12:50.366Z,18.50
2022-09-05T01:15:41.474Z,18.50
2022-09-05T01:18:32.751Z,18.40
2022-09-05T01:21:17.903Z,18.40
2022-09-05T01:24:07.167Z,18.40
2022-09-05T01:27:12.158Z,18.40
2022-09-05T01:29:50.699Z,18.40
2022-09-05T01:32:50.063Z,18.40
2022-09-05T01:35:33.448Z,18.40
2022-09-05T01:38:24.529Z,18.40
2022-09-05T01:41:18.484Z,18.40
2022-09-05T01:44:05.160Z,18.40
2022-09-05T01:46:57.695Z,18.40
2022-09-05T01:49:37.219Z,18.40
2022-09-05T01:52:33.711Z,18.40
2022-09-05T01:55:22.638Z,18.30
2022-09-05T01:58:08.209Z,18.30
2022-09-05T02:00:55.962Z,18.30
2022-09-05T02:03:51.263Z,18.30
2022-09-05T02:06:52.088Z,18.30
2022-09-05T02:09:28.162Z,18.20
2022-09-05T02:12:00.637Z,18.20
2022-09-05T02:14:34.520Z,18.20
2022-09-05T02:17:50.004Z,18.20
2022-09-05T02:20:41.971Z,18.20
2022-09-05T02:23:32.668Z,18.20
2022-09-05T02:26:13.082Z,18.20
2022-09-05T02:28:48.937Z,18.10
2022-09-05T02:31:26.104Z,18.20
2022-09-05T02:33:58.776Z,18.10
2022-09-05T02:36:45.768Z,18.10
2022-09-05T02:45:06.152Z,18.10
2022-09-05T02:45:06.436Z,18.10
2022-09-05T02:45:38.821Z,18.00
2022-09-05T02:48:15.398Z,18.00
2022-09-05T02:56:40.504Z,18.00
2022-09-05T02:57:39.221Z,18.00
2022-09-05T02:57:41.360Z,17.90
2022-09-05T03:00:12.131Z,17.90
2022-09-05T03:03:12.631Z,17.90
2022-09-05T03:06:32.121Z,17.90
2022-09-05T03:09:30.061Z,17.80
2022-09-05T03:12:29.245Z,17.80
2022-09-05T03:15:19.353Z,17.70
2022-09-05T03:18:21.088Z,17.80
2022-09-05T03:20:51.390Z,17.80
2022-09-05T03:23:30.791Z,17.80
2022-09-05T03:26:25.106Z,17.90
2022-09-05T03:29:22.675Z,17.90
2022-09-05T03:32:26.543Z,17.90
2022-09-05T03:35:11.957Z,17.80
2022-09-05T03:37:52.104Z,17.80
2022-09-05T03:40:28.864Z,17.70
2022-09-05T03:43:32.889Z,17.80
2022-09-05T03:46:14.716Z,17.80
2022-09-05T03:48:47.365Z,17.70
2022-09-05T03:57:20.586Z,17.70
2022-09-05T03:57:28.411Z,17.70
2022-09-05T03:58:41.995Z,17.70
2022-09-05T04:03:21.594Z,17.70
2022-09-05T04:08:18.541Z,17.50
2022-09-05T04:08:24.611Z,17.50
2022-09-05T04:10:39.289Z,17.50
2022-09-05T04:13:08.849Z,17.50
2022-09-05T04:15:41.503Z,17.40
2022-09-05T04:18:25.779Z,17.40
2022-09-05T04:21:07.134Z,17.30
2022-09-05T04:23:43.125Z,17.30
2022-09-05T04:26:15.367Z,17.30
2022-09-05T04:28:59.523Z,17.20
2022-09-05T04:31:31.113Z,17.20
2022-09-05T04:34:18.943Z,17.20
2022-09-05T04:36:45.856Z,17.20
2022-09-05T04:39:18.742Z,17.10
2022-09-05T04:42:05.845Z,17.10
2022-09-05T04:44:40.842Z,17.10
2022-09-05T04:47:20.660Z,17.10
2022-09-05T04:49:57.455Z,17.00
2022-09-05T04:52:44.767Z,17.00
2022-09-05T04:55:32.790Z,16.90
2022-09-05T04:58:07.199Z,16.90
2022-09-05T05:05:59.435Z,16.90
2022-09-05T05:06:09.418Z,16.80
2022-09-05T05:06:45.908Z,16.80
2022-09-05T05:09:44.781Z,16.80
2022-09-05T05:17:54.776Z,16.80
2022-09-05T05:18:11.155Z,16.80
2022-09-05T05:18:36.728Z,16.80
2022-09-05T05:21:15.304Z,16.80
2022-09-05T05:23:44.901Z,16.70
2022-09-05T05:26:33.482Z,16.70
2022-09-05T05:29:16.310Z,16.70
2022-09-05T05:32:05.255Z,16.70
2022-09-05T05:34:32.780Z,16.70
2022-09-05T05:37:11.581Z,16.80
2022-09-05T05:39:41.927Z,16.80
2022-09-05T05:42:20.702Z,16.70
2022-09-05T05:44:53.724Z,16.70
2022-09-05T05:47:29.891Z,16.80
2022-09-05T05:50:11.749Z,16.80
2022-09-05T05:52:57.349Z,16.90
2022-09-05T05:55:52.369Z,16.90
2022-09-05T05:58:29.392Z,16.90
2022-09-05T06:01:37.907Z,16.90
2022-09-05T06:04:44.813Z,16.90
2022-09-05T06:07:46.675Z,17.00
2022-09-05T06:14:55.253Z,17.10
2022-09-05T06:15:04.723Z,17.10
2022-09-05T06:16:50.870Z,17.10
2022-09-05T06:22:05.370Z,17.10
2022-09-05T06:23:08.064Z,17.20
2022-09-05T06:26:13.013Z,17.20
2022-09-05T06:29:08.561Z,17.20
2022-09-05T06:31:56.740Z,17.30
2022-09-05T06:34:36.098Z,17.30
2022-09-05T06:37:20.382Z,17.30
2022-09-05T06:40:12.047Z,17.40
2022-09-05T06:43:02.263Z,17.40
2022-09-05T06:45:38.223Z,17.50
2022-09-05T06:48:44.406Z,17.50
2022-09-05T06:51:19.239Z,17.60
2022-09-05T06:54:04.026Z,17.60
2022-09-05T06:57:11.266Z,17.70
2022-09-05T07:00:17.515Z,17.80
2022-09-05T07:03:13.410Z,17.90
2022-09-05T07:05:45.191Z,18.00
2022-09-05T07:08:34.946Z,18.30
2022-09-05T07:11:24.046Z,18.60
2022-09-05T07:13:51.003Z,19.20
2022-09-05T07:16:38.927Z,19.40
2022-09-05T07:19:27.065Z,19.50
2022-09-05T07:22:06.338Z,19.60
2022-09-05T07:24:55.594Z,19.80
2022-09-05T07:28:26.697Z,20.00
2022-09-05T07:30:31.135Z,20.40
2022-09-05T07:32:58.335Z,20.60
2022-09-05T07:35:41.471Z,20.80
2022-09-05T07:38:52.052Z,20.90
2022-09-05T07:41:25.236Z,21.00
2022-09-05T07:43:55.610Z,21.30
2022-09-05T07:46:25.156Z,21.40
2022-09-05T07:49:04.657Z,21.30
2022-09-05T07:56:56.045Z,21.50
2022-09-05T07:57:15.594Z,21.50
2022-09-05T07:57:50.694Z,21.60
2022-09-05T08:00:29.033Z,21.50
2022-09-05T08:03:03.962Z,21.50
2022-09-05T08:05:37.468Z,21.40
2022-09-05T08:08:14.175Z,21.30
2022-09-05T08:11:23.171Z,21.30
2022-09-05T08:13:42.685Z,21.30
2022-09-05T08:16:15.927Z,21.30
2022-09-05T08:18:42.986Z,21.30
2022-09-05T08:21:12.173Z,21.30
2022-09-05T08:23:57.208Z,21.40
2022-09-05T08:26:26.901Z,21.50
2022-09-05T08:29:15.155Z,21.60
2022-09-05T08:31:52.685Z,21.90
2022-09-05T08:34:44.545Z,22.30
2022-09-05T08:37:15.164Z,22.70
2022-09-05T08:39:48.540Z,22.70
2022-09-05T08:42:49.396Z,22.50
2022-09-05T08:46:42.506Z,22.40
2022-09-05T08:48:36.188Z,22.10
2022-09-05T08:51:24.802Z,22.00
2022-09-05T08:54:14.007Z,22.00
2022-09-05T08:56:52.107Z,21.90
2022-09-05T08:59:31.536Z,21.80
2022-09-05T09:02:46.889Z,21.80
2022-09-05T09:05:24.326Z,21.70
2022-09-05T09:08:15.858Z,21.80
2022-09-05T09:10:53.331Z,21.80
2022-09-05T09:13:52.340Z,21.90
2022-09-05T09:16:54.332Z,22.00
2022-09-05T09:19:29.174Z,22.00
2022-09-05T09:22:25.575Z,22.00
2022-09-05T09:25:15.814Z,22.20
2022-09-05T09:28:47.511Z,22.30
2022-09-05T09:30:43.149Z,22.50
2022-09-05T09:33:10.254Z,22.50
2022-09-05T09:35:59.728Z,22.50
2022-09-05T09:39:21.574Z,22.40
2022-09-05T09:42:03.201Z,22.30
2022-09-05T09:44:48.598Z,22.30
2022-09-05T09:47:19.229Z,22.30
2022-09-05T09:50:00.567Z,22.20
2022-09-05T09:53:20.911Z,22.10
2022-09-05T09:55:56.462Z,22.00
2022-09-05T09:58:37.521Z,22.10
2022-09-05T10:01:35.555Z,22.20
2022-09-05T10:10:26.101Z,22.30
2022-09-05T10:10:45.059Z,22.20
2022-09-05T10:11:07.143Z,22.20
2022-09-05T10:13:16.563Z,22.20
2022-09-05T10:16:26.727Z,22.30
2022-09-05T10:19:19.446Z,22.30
2022-09-05T10:21:46.519Z,22.30
2022-09-05T10:24:26.063Z,22.30
2022-09-05T10:27:14.169Z,22.30
2022-09-05T10:29:55.871Z,22.30
2022-09-05T10:35:08.727Z,22.30
2022-09-05T10:35:22.652Z,22.20
2022-09-05T10:37:54.922Z,22.20
2022-09-05T10:40:23.434Z,22.20
2022-09-05T10:43:00.464Z,22.20
2022-09-05T10:45:38.307Z,22.20
2022-09-05T10:48:25.711Z,22.20
2022-09-05T10:51:03.326Z,22.20
2022-09-05T10:53:43.968Z,22.20
2022-09-05T10:56:14.975Z,22.20
2022-09-05T11:01:48.585Z,22.30
2022-09-05T11:02:28.222Z,22.40
2022-09-05T11:04:55.535Z,22.30
2022-09-05T11:07:37.021Z,22.30
2022-09-05T11:10:18.157Z,22.40
2022-09-05T11:13:10.819Z,22.50
2022-09-05T11:16:04.837Z,22.70
2022-09-05T11:18:54.673Z,22.90
2022-09-05T11:21:32.856Z,23.00
2022-09-05T11:24:38.425Z,23.10
2022-09-05T11:27:26.408Z,23.10
2022-09-05T11:30:06.899Z,23.20
2022-09-05T11:36:35.254Z,23.30
2022-09-05T11:40:00.279Z,23.40
2022-09-05T11:40:06.454Z,23.50
2022-09-05T11:42:53.869Z,23.70
2022-09-05T11:45:47.072Z,23.60
2022-09-05T11:48:20.229Z,23.60
2022-09-05T11:50:56.682Z,23.70
2022-09-05T11:53:48.069Z,23.70
2022-09-05T11:56:17.505Z,23.70
2022-09-05T11:59:09.231Z,23.60
2022-09-05T12:01:50.691Z,23.60
2022-09-05T12:05:49.121Z,23.60
2022-09-05T12:07:45.063Z,23.60
2022-09-05T12:10:45.754Z,23.60
2022-09-05T12:13:32.832Z,23.60
2022-09-05T12:16:08.559Z,23.60
2022-09-05T12:18:44.042Z,23.60
2022-09-05T12:21:28.999Z,23.50
2022-09-05T12:25:17.033Z,23.40
2022-09-05T12:27:42.270Z,23.40
2022-09-05T12:29:55.615Z,23.30
2022-09-05T12:33:58.309Z,23.30
2022-09-05T12:36:06.284Z,23.20
2022-09-05T12:40:30.214Z,23.10
2022-09-05T12:41:44.765Z,23.10
2022-09-05T12:44:39.834Z,23.10
2022-09-05T12:47:17.063Z,23.20
2022-09-05T12:50:02.906Z,23.30
2022-09-05T12:52:43.362Z,23.50
2022-09-05T12:55:28.450Z,23.70
2022-09-05T13:02:45.288Z,23.80
2022-09-05T13:03:14.058Z,23.90
2022-09-05T13:03:53.441Z,23.90
2022-09-05T13:06:31.098Z,23.90
2022-09-05T13:09:04.953Z,24.00
2022-09-05T13:14:49.487Z,24.10
2022-09-05T13:14:58.827Z,24.20
2022-09-05T13:17:16.684Z,24.30
2022-09-05T13:19:51.435Z,24.40
2022-09-05T13:22:22.673Z,24.40
2022-09-05T13:25:30.694Z,24.30
2022-09-05T13:28:06.736Z,24.30
2022-09-05T13:34:29.429Z,24.30
2022-09-05T13:38:19.751Z,24.30
2022-09-05T13:38:20.932Z,24.30
2022-09-05T13:39:11.267Z,24.30
2022-09-05T13:41:43.431Z,24.30
2022-09-05T13:44:30.243Z,24.30
2022-09-05T13:47:28.950Z,24.40
2022-09-05T13:50:31.042Z,24.40
2022-09-05T13:53:05.339Z,24.50
2022-09-05T13:55:38.126Z,24.50
2022-09-05T13:58:09.505Z,24.50
2022-09-05T14:00:38.705Z,24.40
2022-09-05T14:03:39.063Z,24.30
2022-09-05T14:06:48.741Z,24.20
2022-09-05T14:09:37.074Z,24.20
2022-09-05T14:12:37.001Z,24.20
2022-09-05T14:15:16.342Z,24.20
2022-09-05T14:17:53.887Z,24.20
2022-09-05T14:21:00.947Z,24.20
2022-09-05T14:23:31.809Z,24.20
2022-09-05T14:26:01.183Z,24.30
2022-09-05T14:28:33.781Z,24.30
2022-09-05T14:33:45.376Z,24.30
2022-09-05T14:37:44.261Z,24.40
2022-09-05T14:37:49.415Z,24.40
2022-09-05T14:40:29.675Z,24.40
2022-09-05T14:43:14.181Z,24.30
2022-09-05T14:46:10.526Z,24.20
2022-09-05T14:48:46.314Z,24.10
2022-09-05T14:51:49.067Z,24.10
2022-09-05T15:01:14.738Z,24.20
2022-09-05T15:02:48.796Z,24.20
2022-09-05T15:03:03.863Z,24.10
2022-09-05T15:05:32.080Z,24.00
2022-09-05T15:08:22.691Z,23.90
2022-09-05T15:12:21.894Z,23.80
2022-09-05T15:13:51.918Z,23.80
2022-09-05T15:16:20.276Z,23.80
2022-09-05T15:18:48.222Z,23.70
2022-09-05T15:21:33.625Z,23.80
2022-09-05T15:24:24.425Z,23.80
2022-09-05T15:26:58.966Z,23.70
2022-09-05T15:29:30.368Z,23.70
2022-09-05T15:32:21.631Z,23.60
2022-09-05T15:34:49.808Z,23.60
2022-09-05T15:37:40.432Z,23.60
2022-09-05T15:40:21.982Z,23.50
2022-09-05T15:42:56.957Z,23.40
2022-09-05T15:45:35.521Z,23.40
2022-09-05T15:48:14.911Z,23.40
2022-09-05T15:50:51.419Z,23.30
2022-09-05T15:53:29.062Z,23.30
2022-09-05T15:56:02.042Z,23.30
2022-09-05T15:58:52.757Z,23.10
2022-09-05T16:01:32.531Z,23.10
2022-09-05T16:08:32.792Z,23.00
2022-09-05T16:10:34.206Z,23.00
2022-09-05T16:10:36.900Z,23.00
2022-09-05T16:12:47.487Z,22.90
2022-09-05T16:17:44.792Z,22.90
2022-09-05T16:23:17.215Z,22.90
2022-09-05T16:23:34.060Z,22.90
2022-09-05T16:24:04.954Z,22.90
2022-09-05T16:26:34.809Z,23.00
2022-09-05T16:29:05.433Z,23.00
2022-09-05T16:31:41.780Z,23.00
2022-09-05T16:34:16.191Z,23.10
2022-09-05T16:37:00.858Z,23.10
2022-09-05T16:39:37.402Z,23.10
2022-09-05T16:42:23.949Z,23.20
2022-09-05T16:45:14.465Z,23.20
2022-09-05T16:47:43.203Z,23.20
2022-09-05T16:50:24.988Z,23.20
2022-09-05T16:53:53.332Z,23.30
2022-09-05T16:56:37.550Z,23.30
2022-09-05T16:59:15.955Z,23.30
2022-09-05T17:02:06.050Z,23.30
2022-09-05T17:05:03.603Z,23.40
2022-09-05T17:07:34.797Z,23.40
2022-09-05T17:10:30.496Z,23.30
2022-09-05T17:12:57.457Z,23.40
2022-09-05T17:15:31.372Z,23.40
2022-09-05T17:18:24.218Z,23.50
2022-09-05T17:20:56.619Z,23.40
2022-09-05T17:29:16.874Z,23.30
2022-09-05T17:29:18.586Z,23.30
2022-09-05T17:32:39.761Z,23.10
2022-09-05T17:35:18.579Z,23.00
2022-09-05T17:38:11.741Z,22.90
2022-09-05T17:40:55.346Z,22.80
2022-09-05T17:43:38.676Z,22.80
2022-09-05T17:46:14.532Z,22.80
2022-09-05T17:48:58.599Z,22.70
2022-09-05T17:51:51.358Z,22.70
2022-09-05T17:54:28.951Z,22.60
2022-09-05T17:56:56.357Z,22.50
2022-09-05T17:59:25.016Z,22.50
2022-09-05T18:02:06.729Z,22.40
2022-09-05T18:04:54.304Z,22.40
2022-09-05T18:07:28.739Z,22.30
2022-09-05T18:13:13.520Z,22.10
2022-09-05T18:15:40.634Z,22.00
2022-09-05T18:19:10.320Z,21.90
2022-09-05T18:21:21.160Z,21.90
2022-09-05T18:24:03.269Z,21.80
2022-09-05T18:26:30.213Z,21.80
2022-09-05T18:29:06.113Z,21.80
2022-09-05T18:31:41.576Z,21.70
2022-09-05T18:34:21.440Z,21.70
2022-09-05T18:36:58.819Z,21.60
2022-09-05T18:39:37.961Z,21.60
2022-09-05T18:42:26.272Z,21.50
2022-09-05T18:44:58.925Z,21.50
2022-09-05T18:47:39.061Z,21.40
2022-09-05T18:50:26.894Z,21.40
2022-09-05T18:53:10.216Z,21.30
2022-09-05T18:56:20.336Z,21.30
2022-09-05T18:59:10.271Z,21.20
2022-09-05T19:02:02.137Z,21.20
2022-09-05T19:04:39.613Z,21.10
2022-09-05T19:07:13.260Z,21.00
2022-09-05T19:10:34.726Z,21.00
2022-09-05T19:12:55.281Z,21.00
2022-09-05T19:15:24.850Z,21.00
2022-09-05T19:18:03.627Z,21.00
2022-09-05T19:20:55.783Z,21.00
2022-09-05T19:23:30.978Z,21.00
2022-09-05T19:26:02.078Z,21.00
2022-09-05T19:36:05.348Z,21.00
2022-09-05T19:36:45.722Z,21.00
2022-09-05T19:37:08.545Z,21.00
2022-09-05T19:37:29.437Z,20.90
2022-09-05T19:47:31.417Z,20.90
2022-09-05T19:47:42.605Z,20.90
2022-09-05T19:47:47.749Z,20.80
2022-09-05T19:48:35.315Z,20.90
2022-09-05T19:51:16.495Z,20.80
2022-09-05T19:53:47.103Z,20.80
2022-09-05T19:56:14.460Z,20.80
2022-09-05T19:58:44.216Z,20.80
2022-09-05T20:01:19.464Z,20.80
2022-09-05T20:03:50.968Z,20.70
2022-09-05T20:06:30.124Z,20.70
2022-09-05T20:09:17.355Z,20.70
2022-09-05T20:11:49.801Z,20.60
2022-09-05T20:14:31.095Z,20.50
2022-09-05T20:17:28.869Z,20.40
2022-09-05T20:20:07.811Z,20.30
2022-09-05T20:22:48.709Z,20.30
2022-09-05T20:25:34.988Z,20.20
2022-09-05T20:28:12.315Z,20.20
2022-09-05T20:30:56.248Z,20.10
2022-09-05T20:33:29.112Z,20.10
2022-09-05T20:38:36.833Z,20.10
2022-09-05T20:43:14.803Z,20.00
2022-09-05T20:43:35.180Z,20.10
2022-09-05T20:44:24.897Z,19.90
2022-09-05T20:53:06.966Z,19.90
2022-09-05T20:54:15.601Z,19.90
2022-09-05T20:54:22.169Z,19.90
2022-09-05T20:56:08.308Z,19.90
2022-09-05T20:58:36.998Z,19.80
2022-09-05T21:01:21.060Z,19.90
2022-09-05T21:03:56.464Z,19.90
2022-09-05T21:06:33.981Z,19.90
2022-09-05T21:09:25.046Z,19.90
2022-09-05T21:11:56.376Z,19.90
2022-09-05T21:14:24.371Z,19.80
2022-09-05T21:17:04.648Z,19.80
2022-09-05T21:19:42.129Z,19.70
2022-09-05T21:22:16.565Z,19.70
2022-09-05T21:24:46.560Z,19.60
2022-09-05T21:27:18.044Z,19.60
2022-09-05T21:29:45.569Z,19.50
2022-09-05T21:32:20.717Z,19.50
2022-09-05T21:34:53.416Z,19.50
2022-09-05T21:37:20.491Z,19.50
2022-09-05T21:39:57.187Z,19.40
2022-09-05T21:45:35.368Z,19.30
2022-09-05T21:47:38.479Z,19.30
2022-09-05T21:48:06.018Z,19.30
2022-09-05T21:50:39.750Z,19.30
2022-09-05T21:55:09.326Z,19.40
2022-09-05T21:59:25.802Z,19.40
2022-09-05T21:59:27.563Z,19.40
2022-09-05T22:01:52.081Z,19.50
2022-09-05T22:04:21.936Z,19.50
2022-09-05T22:06:49.502Z,19.50
2022-09-05T22:09:20.648Z,19.60
2022-09-05T22:11:51.420Z,19.50
2022-09-05T22:14:22.909Z,19.60
2022-09-05T22:16:51.433Z,19.60
2022-09-05T22:19:37.288Z,19.60
2022-09-05T22:22:16.311Z,19.60
2022-09-05T22:24:48.590Z,19.60
2022-09-05T22:27:15.743Z,19.60
2022-09-05T22:29:43.118Z,19.50
2022-09-05T22:32:14.448Z,19.40
2022-09-05T22:34:41.498Z,19.30
2022-09-05T22:37:08.395Z,19.20
2022-09-05T22:39:37.299Z,19.00
2022-09-05T22:42:10.238Z,18.90
2022-09-05T22:44:41.450Z,18.80
2022-09-05T22:47:09.428Z,18.70
2022-09-05T22:49:36.685Z,18.60
2022-09-05T22:52:07.400Z,18.70
2022-09-05T22:54:35.231Z,18.60
2022-09-05T22:57:02.642Z,18.50
2022-09-05T22:59:29.602Z,18.60
2022-09-05T23:01:56.586Z,18.60
2022-09-05T23:04:23.902Z,18.60
2022-09-05T23:06:50.901Z,18.70
2022-09-05T23:09:17.834Z,18.70
2022-09-05T23:11:44.790Z,18.70
2022-09-05T23:14:11.753Z,18.70
2022-09-05T23:16:38.673Z,18.70
2022-09-05T23:19:05.595Z,18.60
2022-09-05T23:21:32.494Z,18.60
2022-09-05T23:23:59.483Z,18.60
2022-09-05T23:26:26.771Z,18.60
2022-09-05T23:28:53.668Z,18.60
2022-09-05T23:31:20.625Z,18.60
2022-09-05T23:33:47.606Z,18.60
2022-09-05T23:36:14.815Z,18.60
2022-09-05T23:38:42.539Z,18.60
2022-09-05T23:41:11.220Z,18.50
2022-09-05T23:43:38.192Z,18.50
2022-09-05T23:46:05.299Z,18.40
2022-09-05T23:48:32.488Z,18.40
2022-09-05T23:51:05.475Z,18.30
2022-09-05T23:53:32.430Z,18.30
2022-09-05T23:56:00.920Z,18.30
2022-09-05T23:58:29.218Z,18.20
